Time;durP1;ratioP1;P1;durP2;ratioP2;P2;SDS_P1;SDS_P2;PMS_P1;PMS_P2;Temp;Humidity;BMP_temperature;BMP_pressure;BME280_temperature;BME280_humidity;BME280_pressure;Samples;Min_cycle;Max_cycle;Signal;HPM_P1;HPM_P2
2023/08/24 00:02:13;;;;;;;9.93;4.75;;;;;;;;;;5008705;28;20018;-72
2023/08/24 00:04:38;;;;;;;9.80;5.13;;;;;;;;;;5008054;28;20033;-73
2023/08/24 00:07:04;;;;;;;13.27;5.07;;;;;;;;;;5009435;28;20022;-67
2023/08/24 00:09:29;;;;;;;13.70;5.45;;;;;;;;;;5008445;28;20025;-72
2023/08/24 00:11:55;;;;;;;10.55;5.20;;;;;;;;;;5008931;28;20022;-70
2023/08/24 00:14:20;;;;;;;8.02;4.75;;;;;;;;;;5007632;28;20014;-73
2023/08/24 00:16:46;;;;;;;10.93;5.00;;;;;;;;;;5008384;28;20072;-70
2023/08/24 00:19:11;;;;;;;16.27;5.43;;;;;;;;;;5008589;28;20033;-74
2023/08/24 00:21:36;;;;;;;11.85;5.47;;;;;;;;;;5009069;28;20025;-72
2023/08/24 00:24:02;;;;;;;11.35;4.97;;;;;;;;;;5005159;28;20345;-72
2023/08/24 00:26:27;;;;;;;9.05;5.07;;;;;;;;;;5008202;28;20014;-72
2023/08/24 00:28:52;;;;;;;13.90;4.90;;;;;;;;;;5008273;28;20460;-73
2023/08/24 00:31:18;;;;;;;9.68;5.15;;;;;;;;;;5029853;23;20041;-70
2023/08/24 00:33:43;;;;;;;11.23;5.22;;;;;;;;;;5048812;28;20044;-71
2023/08/24 00:36:08;;;;;;;19.88;5.35;;;;;;;;;;5049228;28;20021;-72
2023/08/24 00:38:33;;;;;;;11.88;4.88;;;;;;;;;;5049804;28;20108;-70
2023/08/24 00:40:59;;;;;;;7.53;4.72;;;;;;;;;;5049503;28;20048;-71
2023/08/24 00:43:27;;;;;;;12.27;4.75;;;;;;;;;;5049632;28;20040;-71
2023/08/24 00:45:54;;;;;;;13.07;4.70;;;;;;;;;;5049230;28;20029;-69
2023/08/24 00:48:21;;;;;;;12.20;4.93;;;;;;;;;;5049153;28;20040;-70
2023/08/24 00:50:46;;;;;;;7.63;4.65;;;;;;;;;;5049084;28;20463;-69
2023/08/24 00:53:12;;;;;;;9.13;4.82;;;;;;;;;;5049881;28;20055;-69
2023/08/24 00:55:37;;;;;;;11.02;4.85;;;;;;;;;;5048519;28;20575;-70
2023/08/24 00:58:03;;;;;;;15.25;5.13;;;;;;;;;;5049762;28;20105;-70
2023/08/24 01:00:28;;;;;;;8.77;5.22;;;;;;;;;;5048891;28;20482;-71
2023/08/24 01:02:53;;;;;;;11.52;5.65;;;;;;;;;;5030427;28;20104;-71
2023/08/24 01:05:19;;;;;;;10.45;5.28;;;;;;;;;;5048287;28;20500;-71
2023/08/24 01:07:44;;;;;;;13.15;5.38;;;;;;;;;;5050427;28;20106;-71
2023/08/24 01:10:10;;;;;;;11.75;5.78;;;;;;;;;;5051319;28;20094;-70
2023/08/24 01:12:38;;;;;;;10.35;4.90;;;;;;;;;;5032715;28;20032;-69
2023/08/24 01:15:14;;;;;;;12.32;5.60;;;;;;;;;;5048711;28;20021;-70
2023/08/24 01:17:42;;;;;;;13.30;5.40;;;;;;;;;;5048981;28;20036;-71
2023/08/24 01:20:09;;;;;;;10.03;5.10;;;;;;;;;;5049070;28;20047;-68
2023/08/24 01:22:35;;;;;;;12.53;5.43;;;;;;;;;;5049319;28;20483;-69
2023/08/24 01:25:15;;;;;;;11.23;5.20;;;;;;;;;;5041027;28;20347;-71
2023/08/24 01:27:41;;;;;;;7.68;5.40;;;;;;;;;;5049273;28;20075;-72
2023/08/24 01:30:07;;;;;;;12.00;5.13;;;;;;;;;;5048775;28;20033;-72
2023/08/24 01:32:33;;;;;;;11.77;5.22;;;;;;;;;;5048789;28;20552;-70
2023/08/24 01:34:59;;;;;;;9.85;5.00;;;;;;;;;;5048225;28;20025;-71
2023/08/24 01:37:24;;;;;;;13.45;5.70;;;;;;;;;;5048940;28;20099;-70
2023/08/24 01:39:49;;;;;;;10.60;5.22;;;;;;;;;;5048388;28;20028;-70
2023/08/24 01:42:18;;;;;;;11.33;5.00;;;;;;;;;;5048953;28;20541;-70
2023/08/24 01:44:47;;;;;;;10.20;5.80;;;;;;;;;;5030247;28;20308;-71
2023/08/24 01:47:12;;;;;;;;;;;;;;;;;;5050454;28;20025;-71
2023/08/24 01:49:38;;;;;;;12.52;5.35;;;;;;;;;;5052553;28;19915;-71
2023/08/24 01:52:04;;;;;;;13.00;5.90;;;;;;;;;;5052752;28;20014;-72
2023/08/24 01:54:29;;;;;;;10.55;5.82;;;;;;;;;;5051579;28;20017;-68
2023/08/24 01:56:55;;;;;;;11.27;6.22;;;;;;;;;;5052458;28;20021;-71
2023/08/24 01:59:20;;;;;;;11.85;6.00;;;;;;;;;;5050376;28;20032;-71
2023/08/24 02:01:45;;;;;;;11.48;5.80;;;;;;;;;;5033344;28;20606;-70
2023/08/24 02:04:11;;;;;;;10.10;5.03;;;;;;;;;;5050522;28;20390;-69
2023/08/24 02:06:36;;;;;;;9.82;5.78;;;;;;;;;;5052468;28;20074;-69
2023/08/24 02:09:01;;;;;;;8.48;5.60;;;;;;;;;;5052128;28;20104;-69
2023/08/24 02:11:26;;;;;;;12.88;5.40;;;;;;;;;;5051792;28;20087;-72
2023/08/24 02:13:51;;;;;;;11.98;6.05;;;;;;;;;;5051470;28;20025;-69
2023/08/24 02:16:17;;;;;;;14.18;5.30;;;;;;;;;;5052168;28;20120;-70
2023/08/24 02:18:42;;;;;;;13.93;6.65;;;;;;;;;;5051994;28;20099;-70
2023/08/24 02:21:08;;;;;;;15.60;7.03;;;;;;;;;;5051685;28;20017;-68
2023/08/24 02:23:34;;;;;;;11.70;6.32;;;;;;;;;;5051225;28;20020;-69
2023/08/24 02:25:59;;;;;;;11.07;6.03;;;;;;;;;;5049335;28;20021;-70
2023/08/24 02:28:24;;;;;;;15.23;6.25;;;;;;;;;;5051878;28;20036;-70
2023/08/24 02:30:50;;;;;;;17.17;6.05;;;;;;;;;;5051397;28;20039;-71
2023/08/24 02:33:15;;;;;;;12.93;6.18;;;;;;;;;;5051602;28;20637;-69
2023/08/24 02:35:40;;;;;;;15.88;6.72;;;;;;;;;;5051286;28;20048;-71
2023/08/24 02:38:05;;;;;;;11.90;6.05;;;;;;;;;;5052113;28;20458;-69
2023/08/24 02:40:31;;;;;;;13.20;6.50;;;;;;;;;;5051106;28;20017;-70
2023/08/24 02:42:56;;;;;;;11.43;5.85;;;;;;;;;;5051903;28;20425;-70
2023/08/24 02:45:21;;;;;;;16.75;6.07;;;;;;;;;;5050305;28;20469;-71
2023/08/24 02:47:47;;;;;;;10.77;5.85;;;;;;;;;;5051576;28;20111;-69
2023/08/24 02:50:12;;;;;;;15.70;6.90;;;;;;;;;;5051123;28;20025;-72
2023/08/24 02:52:37;;;;;;;10.57;6.85;;;;;;;;;;5051680;28;20564;-70
2023/08/24 02:55:03;;;;;;;16.15;6.30;;;;;;;;;;5050480;28;20024;-68
2023/08/24 02:57:28;;;;;;;11.98;6.63;;;;;;;;;;5051625;28;20060;-70
2023/08/24 02:59:54;;;;;;;8.23;5.28;;;;;;;;;;5050885;28;20021;-71
2023/08/24 03:02:19;;;;;;;12.38;6.28;;;;;;;;;;5050746;28;20466;-70
2023/08/24 03:04:44;;;;;;;13.75;5.68;;;;;;;;;;5049642;28;20025;-70
2023/08/24 03:07:10;;;;;;;17.83;5.90;;;;;;;;;;5051681;28;20398;-69
2023/08/24 03:09:35;;;;;;;13.70;6.30;;;;;;;;;;5051405;28;20541;-70
2023/08/24 03:12:04;;;;;;;12.32;5.45;;;;;;;;;;5053539;28;20017;-70
2023/08/24 03:14:29;;;;;;;13.40;5.75;;;;;;;;;;5052568;28;20009;-70
2023/08/24 03:16:55;;;;;;;11.00;5.82;;;;;;;;;;5053810;28;20032;-70
2023/08/24 03:19:20;;;;;;;12.18;5.60;;;;;;;;;;5051474;28;20067;-70
2023/08/24 03:21:45;;;;;;;7.90;5.25;;;;;;;;;;5051120;28;20033;-69
2023/08/24 03:24:10;;;;;;;16.20;6.00;;;;;;;;;;5047127;28;20017;-69
2023/08/24 03:26:36;;;;;;;15.15;6.65;;;;;;;;;;5050586;28;20024;-67
2023/08/24 03:29:01;;;;;;;16.83;11.80;;;;;;;;;;5036076;28;20040;-66
2023/08/24 03:31:26;;;;;;;11.18;8.38;;;;;;;;;;5049623;28;20493;-69
2023/08/24 03:33:52;;;;;;;12.43;7.32;;;;;;;;;;5048226;28;20075;-69
2023/08/24 03:36:17;;;;;;;12.05;7.28;;;;;;;;;;5050668;28;20017;-69
2023/08/24 03:38:42;;;;;;;11.77;6.95;;;;;;;;;;5050184;28;20105;-70
2023/08/24 03:41:07;;;;;;;9.65;6.85;;;;;;;;;;5049330;28;20071;-69
2023/08/24 03:43:34;;;;;;;13.30;7.88;;;;;;;;;;5050066;28;20052;-70
2023/08/24 03:45:59;;;;;;;14.63;7.55;;;;;;;;;;5049543;28;20111;-70
2023/08/24 03:48:24;;;;;;;12.70;6.57;;;;;;;;;;5050165;28;20116;-68
2023/08/24 03:50:49;;;;;;;11.23;6.40;;;;;;;;;;5014135;28;20100;-71
2023/08/24 03:53:15;;;;;;;14.60;6.88;;;;;;;;;;5030018;28;20025;-70
2023/08/24 03:55:40;;;;;;;10.88;6.63;;;;;;;;;;5031917;28;20468;-67
2023/08/24 03:58:05;;;;;;;13.68;7.45;;;;;;;;;;5050322;28;20020;-71
2023/08/24 04:00:31;;;;;;;10.95;6.20;;;;;;;;;;5050110;28;20020;-68
2023/08/24 04:02:56;;;;;;;16.42;7.13;;;;;;;;;;5050243;28;20479;-71
2023/08/24 04:05:21;;;;;;;18.17;7.13;;;;;;;;;;5048326;28;20032;-71
2023/08/24 04:07:47;;;;;;;12.68;6.13;;;;;;;;;;5050312;28;20033;-71
2023/08/24 04:10:12;;;;;;;18.27;8.05;;;;;;;;;;5049181;28;20035;-70
2023/08/24 04:12:37;;;;;;;15.63;6.80;;;;;;;;;;5050045;28;20021;-71
2023/08/24 04:15:04;;;;;;;10.68;6.20;;;;;;;;;;5049330;28;20056;-69
2023/08/24 04:17:29;;;;;;;13.25;5.63;;;;;;;;;;5049782;28;20041;-69
2023/08/24 04:19:54;;;;;;;16.77;6.65;;;;;;;;;;5048624;28;20067;-70
2023/08/24 04:22:19;;;;;;;10.98;6.20;;;;;;;;;;5050068;28;20017;-70
2023/08/24 04:24:45;;;;;;;13.32;6.20;;;;;;;;;;5041067;28;20017;-70
2023/08/24 04:27:10;;;;;;;19.30;6.93;;;;;;;;;;5050176;28;20029;-70
2023/08/24 04:29:35;;;;;;;18.17;6.75;;;;;;;;;;5049861;28;20725;-71
2023/08/24 04:32:01;;;;;;;10.50;6.00;;;;;;;;;;5051932;28;20033;-71
2023/08/24 04:34:26;;;;;;;14.85;6.22;;;;;;;;;;5047844;28;20063;-72
2023/08/24 04:36:51;;;;;;;19.08;6.35;;;;;;;;;;5049355;28;20028;-72
2023/08/24 04:39:18;;;;;;;13.00;6.57;;;;;;;;;;5049845;28;20394;-70
2023/08/24 04:41:43;;;;;;;19.38;7.03;;;;;;;;;;5048718;28;20110;-70
2023/08/24 04:44:09;;;;;;;13.13;6.93;;;;;;;;;;5030735;28;20120;-70
2023/08/24 04:46:34;;;;;;;15.85;7.25;;;;;;;;;;5048924;28;20029;-71
2023/08/24 04:48:59;;;;;;;14.77;6.55;;;;;;;;;;5049007;28;20032;-71
2023/08/24 04:51:27;;;;;;;18.67;6.47;;;;;;;;;;5049841;28;20478;-71
2023/08/24 04:53:52;;;;;;;8.25;5.63;;;;;;;;;;5043824;28;20448;-68
2023/08/24 04:56:19;;;;;;;24.35;6.82;;;;;;;;;;5046602;28;20032;-69
2023/08/24 04:58:54;;;;;;;13.68;6.43;;;;;;;;;;5041808;28;20412;-69
2023/08/24 05:01:19;;;;;;;13.02;6.43;;;;;;;;;;5043770;28;20017;-70
2023/08/24 05:03:44;;;;;;;15.73;7.35;;;;;;;;;;5041935;28;20027;-72
2023/08/24 05:06:10;;;;;;;9.57;6.18;;;;;;;;;;5048268;28;20020;-73
2023/08/24 05:08:35;;;;;;;18.10;6.90;;;;;;;;;;5049565;28;20364;-69
2023/08/24 05:11:00;;;;;;;16.13;6.97;;;;;;;;;;5048956;28;20395;-73
2023/08/24 05:13:25;;;;;;;13.48;6.40;;;;;;;;;;5049695;28;20382;-70
2023/08/24 05:15:50;;;;;;;21.67;6.70;;;;;;;;;;5042696;28;20483;-74
2023/08/24 05:18:16;;;;;;;21.30;8.27;;;;;;;;;;5043793;28;20261;-73
2023/08/24 05:20:41;;;;;;;12.73;5.95;;;;;;;;;;5047801;28;20044;-71
2023/08/24 05:23:07;;;;;;;13.05;6.80;;;;;;;;;;5052825;28;20053;-72
2023/08/24 05:25:34;;;;;;;14.27;6.43;;;;;;;;;;5050685;28;20025;-67
2023/08/24 05:27:59;;;;;;;19.77;6.97;;;;;;;;;;5053014;28;20024;-70
2023/08/24 05:30:25;;;;;;;13.95;8.70;;;;;;;;;;5052587;28;20031;-73
2023/08/24 05:32:50;;;;;;;12.18;6.38;;;;;;;;;;5051208;28;20087;-72
2023/08/24 05:35:15;;;;;;;16.40;6.75;;;;;;;;;;5049175;28;20082;-72
2023/08/24 05:37:40;;;;;;;13.88;6.28;;;;;;;;;;5052084;28;20033;-72
2023/08/24 05:40:06;;;;;;;16.80;7.60;;;;;;;;;;5051845;28;20024;-70
2023/08/24 05:42:31;;;;;;;14.25;7.45;;;;;;;;;;5050050;28;20379;-72
2023/08/24 05:44:57;;;;;;;11.38;6.60;;;;;;;;;;5051482;28;20017;-69
2023/08/24 05:47:22;;;;;;;16.30;7.28;;;;;;;;;;5052353;28;20061;-68
2023/08/24 05:49:47;;;;;;;17.02;6.68;;;;;;;;;;5051576;28;20029;-69
2023/08/24 05:52:12;;;;;;;21.40;7.28;;;;;;;;;;5053004;28;20028;-71
2023/08/24 05:54:38;;;;;;;18.45;6.82;;;;;;;;;;5051292;28;20509;-73
2023/08/24 05:57:04;;;;;;;17.48;6.65;;;;;;;;;;5052085;28;20025;-70
2023/08/24 05:59:29;;;;;;;24.05;8.90;;;;;;;;;;5051818;28;20095;-72
2023/08/24 06:01:55;;;;;;;15.65;7.18;;;;;;;;;;5046642;28;20013;-71
2023/08/24 06:04:20;;;;;;;12.25;6.80;;;;;;;;;;5050703;28;20013;-70
2023/08/24 06:06:45;;;;;;;11.50;6.35;;;;;;;;;;5052298;28;20017;-71
2023/08/24 06:09:11;;;;;;;20.42;6.55;;;;;;;;;;5052289;28;20025;-69
2023/08/24 06:11:36;;;;;;;14.48;6.78;;;;;;;;;;5051866;28;20012;-71
2023/08/24 06:14:01;;;;;;;14.80;6.93;;;;;;;;;;5051269;28;20027;-70
2023/08/24 06:16:27;;;;;;;14.80;6.53;;;;;;;;;;5034168;28;20150;-70
2023/08/24 06:18:53;;;;;;;25.65;8.27;;;;;;;;;;5051799;28;20017;-71
2023/08/24 06:21:18;;;;;;;14.07;7.32;;;;;;;;;;5051916;28;20037;-72
2023/08/24 06:23:44;;;;;;;13.40;6.32;;;;;;;;;;5048999;28;20083;-71
2023/08/24 06:26:10;;;;;;;13.32;5.57;;;;;;;;;;5050211;28;20017;-70
2023/08/24 06:28:35;;;;;;;13.65;6.03;;;;;;;;;;5051978;28;20024;-70
2023/08/24 06:31:00;;;;;;;17.77;7.78;;;;;;;;;;5059607;22;20052;-70
2023/08/24 06:33:31;;;;;;;10.23;6.60;;;;;;;;;;5030875;28;20038;-68
2023/08/24 06:35:57;;;;;;;11.38;6.05;;;;;;;;;;5024283;28;20036;-68
2023/08/24 06:38:22;;;;;;;14.90;6.53;;;;;;;;;;5017853;28;20009;-72
2023/08/24 06:40:48;;;;;;;13.30;6.22;;;;;;;;;;5032192;28;20328;-71
2023/08/24 06:43:13;;;;;;;15.55;5.75;;;;;;;;;;5031280;28;20141;-71
2023/08/24 06:45:39;;;;;;;18.42;6.78;;;;;;;;;;5028290;28;20403;-69
2023/08/24 06:48:06;;;;;;;14.13;6.28;;;;;;;;;;5013701;28;20025;-71
2023/08/24 06:50:32;;;;;;;13.90;6.20;;;;;;;;;;5030227;28;20197;-72
2023/08/24 06:52:57;;;;;;;18.08;5.75;;;;;;;;;;5021653;28;20085;-70
2023/08/24 06:55:22;;;;;;;13.02;5.72;;;;;;;;;;5029970;28;20340;-72
2023/08/24 06:57:48;;;;;;;9.23;5.10;;;;;;;;;;5031448;28;20452;-71
2023/08/24 07:00:15;;;;;;;23.02;6.32;;;;;;;;;;5030450;28;20652;-69
2023/08/24 07:02:40;;;;;;;12.05;5.85;;;;;;;;;;5029656;28;20077;-71
2023/08/24 07:05:08;;;;;;;11.68;5.10;;;;;;;;;;5028469;28;20096;-71
2023/08/24 07:07:33;;;;;;;8.43;5.43;;;;;;;;;;5031578;28;20496;-71
2023/08/24 07:09:58;;;;;;;10.88;5.53;;;;;;;;;;5011835;28;20037;-69
2023/08/24 07:12:23;;;;;;;16.30;5.93;;;;;;;;;;5030437;28;20025;-73
2023/08/24 07:14:49;;;;;;;12.70;5.40;;;;;;;;;;5029440;28;20021;-69
2023/08/24 07:17:14;;;;;;;12.05;5.72;;;;;;;;;;5012070;28;20022;-70
2023/08/24 07:19:39;;;;;;;11.73;5.30;;;;;;;;;;5029615;28;20035;-74
2023/08/24 07:22:04;;;;;;;13.40;5.00;;;;;;;;;;5012074;28;20151;-71
2023/08/24 07:24:30;;;;;;;9.98;5.32;;;;;;;;;;5026047;28;20254;-72
2023/08/24 07:26:55;;;;;;;10.93;4.43;;;;;;;;;;5030059;28;20041;-69
2023/08/24 07:29:21;;;;;;;18.13;4.80;;;;;;;;;;5029490;28;20103;-70
2023/08/24 07:31:46;;;;;;;14.20;4.97;;;;;;;;;;5029283;28;20106;-69
2023/08/24 07:34:11;;;;;;;11.60;5.00;;;;;;;;;;5029391;28;20101;-72
2023/08/24 07:36:36;;;;;;;11.77;4.88;;;;;;;;;;5029612;28;20073;-70
2023/08/24 07:39:02;;;;;;;14.97;5.30;;;;;;;;;;5029334;28;20036;-70
2023/08/24 07:41:27;;;;;;;11.23;5.03;;;;;;;;;;5029363;28;20283;-70
2023/08/24 07:43:52;;;;;;;15.75;4.82;;;;;;;;;;5028095;28;20028;-70
2023/08/24 07:46:17;;;;;;;14.75;5.50;;;;;;;;;;5029278;28;20379;-69
2023/08/24 07:48:43;;;;;;;9.52;4.13;;;;;;;;;;5029771;28;20026;-70
2023/08/24 07:51:08;;;;;;;19.17;4.30;;;;;;;;;;5028481;28;20071;-71
2023/08/24 07:53:34;;;;;;;16.40;4.22;;;;;;;;;;5029030;28;20731;-70
2023/08/24 07:55:59;;;;;;;8.65;3.85;;;;;;;;;;5028753;28;20045;-70
2023/08/24 07:58:25;;;;;;;11.50;3.88;;;;;;;;;;5028965;28;20085;-68
2023/08/24 08:00:53;;;;;;;10.77;4.00;;;;;;;;;;5028477;28;20018;-70
2023/08/24 08:03:19;;;;;;;17.50;3.60;;;;;;;;;;5028264;28;20025;-71
2023/08/24 08:05:45;;;;;;;8.45;4.05;;;;;;;;;;5028132;28;20116;-69
2023/08/24 08:08:10;;;;;;;16.48;4.28;;;;;;;;;;5029131;28;20030;-72
2023/08/24 08:10:35;;;;;;;15.93;3.53;;;;;;;;;;5029140;28;20036;-71
2023/08/24 08:13:01;;;;;;;8.43;2.70;;;;;;;;;;5029288;28;20029;-70
2023/08/24 08:15:26;;;;;;;14.63;3.83;;;;;;;;;;5028160;28;20013;-71
2023/08/24 08:17:52;;;;;;;13.40;3.47;;;;;;;;;;5029626;28;20113;-69
2023/08/24 08:20:17;;;;;;;15.60;3.85;;;;;;;;;;5027849;28;20017;-69
2023/08/24 08:22:42;;;;;;;12.35;4.00;;;;;;;;;;5027322;28;20057;-72
2023/08/24 08:25:08;;;;;;;7.88;3.50;;;;;;;;;;5019951;28;20099;-71
2023/08/24 08:27:33;;;;;;;14.35;3.72;;;;;;;;;;5028440;28;20017;-68
2023/08/24 08:29:58;;;;;;;13.95;2.85;;;;;;;;;;5028774;28;20056;-72
2023/08/24 08:32:26;;;;;;;7.25;2.72;;;;;;;;;;5028481;28;20026;-68
2023/08/24 08:34:52;;;;;;;9.48;3.22;;;;;;;;;;5028339;28;20464;-71
2023/08/24 08:37:17;;;;;;;10.80;3.00;;;;;;;;;;5010190;28;20120;-70
2023/08/24 08:39:42;;;;;;;7.75;2.78;;;;;;;;;;5028350;28;20754;-70
2023/08/24 08:42:11;;;;;;;14.17;2.50;;;;;;;;;;5027879;28;20695;-70
2023/08/24 08:44:36;;;;;;;9.82;3.08;;;;;;;;;;5027820;28;20715;-69
2023/08/24 08:47:02;;;;;;;8.70;2.90;;;;;;;;;;5029281;28;20096;-72
2023/08/24 08:49:30;;;;;;;10.10;2.22;;;;;;;;;;5027872;28;20419;-70
2023/08/24 08:51:55;;;;;;;11.25;2.58;;;;;;;;;;5027775;28;20021;-69
2023/08/24 08:54:23;;;;;;;7.20;2.50;;;;;;;;;;5024936;28;20543;-73
2023/08/24 08:56:48;;;;;;;;;;;;;;;;;;5023276;28;20017;-72
2023/08/24 08:59:14;;;;;;;8.15;2.92;;;;;;;;;;5028323;28;19916;-66
2023/08/24 09:01:39;;;;;;;8.38;2.67;;;;;;;;;;5024557;28;20025;-71
2023/08/24 09:04:06;;;;;;;4.95;2.33;;;;;;;;;;5026481;28;20533;-69
2023/08/24 09:06:31;;;;;;;6.20;2.22;;;;;;;;;;5027596;28;20036;-71
2023/08/24 09:08:56;;;;;;;7.30;2.13;;;;;;;;;;5028821;28;20439;-67
2023/08/24 09:11:23;;;;;;;11.40;2.20;;;;;;;;;;5028537;28;20483;-70
2023/08/24 09:13:48;;;;;;;4.95;2.40;;;;;;;;;;5009648;28;20021;-71
2023/08/24 09:16:15;;;;;;;17.00;2.37;;;;;;;;;;5029099;28;20020;-70
2023/08/24 09:18:42;;;;;;;12.02;2.65;;;;;;;;;;5011445;28;20616;-72
2023/08/24 09:21:11;;;;;;;8.10;2.00;;;;;;;;;;5028034;28;20583;-71
2023/08/24 09:23:38;;;;;;;7.00;2.20;;;;;;;;;;5026741;28;20029;-71
2023/08/24 09:26:04;;;;;;;10.32;2.75;;;;;;;;;;5027487;28;20104;-72
2023/08/24 09:28:30;;;;;;;10.38;2.90;;;;;;;;;;5028011;28;20035;-72
2023/08/24 09:30:55;;;;;;;5.82;2.22;;;;;;;;;;5027992;28;20100;-70
2023/08/24 09:33:25;;;;;;;12.27;2.65;;;;;;;;;;5026856;28;20109;-70
2023/08/24 09:36:01;;;;;;;6.65;2.72;;;;;;;;;;5026288;28;20383;-69
2023/08/24 09:38:26;;;;;;;14.30;2.55;;;;;;;;;;5016235;28;20384;-69
2023/08/24 09:40:52;;;;;;;13.20;3.00;;;;;;;;;;5020178;28;20365;-71
2023/08/24 09:43:17;;;;;;;13.40;3.17;;;;;;;;;;5018571;28;20077;-70
2023/08/24 09:45:53;;;;;;;13.17;3.33;;;;;;;;;;5019986;28;20047;-72
2023/08/24 09:48:19;;;;;;;19.40;3.85;;;;;;;;;;5019506;28;20263;-71
2023/08/24 09:50:46;;;;;;;9.25;2.80;;;;;;;;;;5018768;28;20478;-70
2023/08/24 09:53:15;;;;;;;15.02;2.80;;;;;;;;;;5018618;28;20021;-69
2023/08/24 09:55:41;;;;;;;12.63;2.35;;;;;;;;;;5020013;28;20029;-67
2023/08/24 09:58:09;;;;;;;15.13;3.63;;;;;;;;;;5018954;28;20013;-70
2023/08/24 10:00:35;;;;;;;15.10;3.15;;;;;;;;;;5018691;28;20030;-68
2023/08/24 10:03:03;;;;;;;13.63;2.85;;;;;;;;;;5019403;28;20028;-71
2023/08/24 10:05:31;;;;;;;11.93;3.20;;;;;;;;;;5017360;28;21679;-67
2023/08/24 10:07:56;;;;;;;15.68;3.50;;;;;;;;;;5020923;28;20024;-71
2023/08/24 10:10:24;;;;;;;10.63;3.00;;;;;;;;;;5022656;28;20029;-70
2023/08/24 10:12:58;;;;;;;14.60;2.73;;;;;;;;;;5023102;28;20045;-69
2023/08/24 10:15:24;;;;;;;16.90;2.92;;;;;;;;;;5021951;28;20022;-71
2023/08/24 10:17:50;;;;;;;13.25;3.30;;;;;;;;;;5023389;28;20017;-68
2023/08/24 10:20:17;;;;;;;8.75;3.42;;;;;;;;;;5021042;28;20807;-72
2023/08/24 10:22:43;;;;;;;8.23;2.95;;;;;;;;;;5022309;28;20044;-68
2023/08/24 10:25:09;;;;;;;8.90;2.97;;;;;;;;;;5024356;28;20029;-71
2023/08/24 10:27:34;;;;;;;14.98;3.25;;;;;;;;;;5029832;28;20032;-71
2023/08/24 10:30:00;;;;;;;11.70;3.85;;;;;;;;;;5020520;28;20121;-69
2023/08/24 10:32:25;;;;;;;9.00;2.35;;;;;;;;;;5023351;28;20041;-72
2023/08/24 10:34:51;;;;;;;13.60;3.28;;;;;;;;;;5022107;28;20034;-71
2023/08/24 10:37:16;;;;;;;9.18;2.75;;;;;;;;;;5021948;28;20131;-69
2023/08/24 10:39:45;;;;;;;10.45;2.53;;;;;;;;;;5022808;28;20037;-67
2023/08/24 10:42:11;;;;;;;11.35;3.75;;;;;;;;;;5023307;28;20025;-69
2023/08/24 10:44:38;;;;;;;7.88;2.90;;;;;;;;;;5022861;28;20028;-69
2023/08/24 10:47:07;;;;;;;15.82;2.85;;;;;;;;;;5019856;28;20422;-70
2023/08/24 10:49:33;;;;;;;13.70;2.72;;;;;;;;;;5023135;28;20029;-71
2023/08/24 10:52:15;;;;;;;16.55;2.95;;;;;;;;;;5021418;28;20036;-72
2023/08/24 10:54:45;;;;;;;6.60;2.92;;;;;;;;;;5006016;28;20032;-71
2023/08/24 10:57:18;;;;;;;9.70;2.55;;;;;;;;;;5021181;28;20033;-72
2023/08/24 10:59:43;;;;;;;14.77;4.88;;;;;;;;;;5022205;28;20538;-69
2023/08/24 11:02:17;;;;;;;14.45;2.95;;;;;;;;;;5021439;28;20021;-70
2023/08/24 11:05:02;;;;;;;9.30;2.92;;;;;;;;;;5020602;28;20240;-68
2023/08/24 11:07:27;;;;;;;15.70;3.15;;;;;;;;;;5022253;28;20044;-68
2023/08/24 11:09:52;;;;;;;9.52;3.17;;;;;;;;;;5022486;28;20371;-73
2023/08/24 11:12:18;;;;;;;16.77;3.50;;;;;;;;;;5022047;28;20032;-69
2023/08/24 11:14:51;;;;;;;17.60;3.17;;;;;;;;;;5022130;28;20286;-71
2023/08/24 11:17:20;;;;;;;16.85;4.28;;;;;;;;;;5019503;28;20339;-70
2023/08/24 11:19:49;;;;;;;13.55;2.80;;;;;;;;;;5021484;28;20032;-70
2023/08/24 11:22:15;;;;;;;8.80;2.92;;;;;;;;;;5023215;28;20018;-69
2023/08/24 11:24:41;;;;;;;17.58;3.70;;;;;;;;;;5022358;28;20037;-70
2023/08/24 11:27:08;;;;;;;6.95;2.97;;;;;;;;;;5019919;28;20123;-72
2023/08/24 11:29:34;;;;;;;9.70;3.22;;;;;;;;;;5022495;28;20030;-71
2023/08/24 11:31:59;;;;;;;15.37;3.90;;;;;;;;;;5014311;28;20044;-72
2023/08/24 11:34:24;;;;;;;10.60;2.92;;;;;;;;;;5006973;28;20278;-72
2023/08/24 11:36:50;;;;;;;16.05;2.97;;;;;;;;;;5020026;28;20026;-70
2023/08/24 11:39:16;;;;;;;13.65;2.95;;;;;;;;;;5022746;28;20471;-70
2023/08/24 11:41:41;;;;;;;14.13;3.45;;;;;;;;;;5024580;28;20462;-69
2023/08/24 11:44:06;;;;;;;4.13;2.43;;;;;;;;;;5023576;28;20758;-69
2023/08/24 11:46:32;;;;;;;7.75;2.53;;;;;;;;;;5022434;28;21183;-71
2023/08/24 11:48:58;;;;;;;20.55;3.17;;;;;;;;;;5022781;28;20375;-72
2023/08/24 11:51:23;;;;;;;12.02;3.13;;;;;;;;;;5009128;28;21511;-72
2023/08/24 11:53:49;;;;;;;14.77;3.13;;;;;;;;;;5021264;28;20033;-68
2023/08/24 11:56:16;;;;;;;9.70;3.00;;;;;;;;;;5025431;28;20048;-70
2023/08/24 11:58:42;;;;;;;32.78;3.05;;;;;;;;;;5026588;28;20501;-70
2023/08/24 12:01:08;;;;;;;10.13;3.22;;;;;;;;;;5026663;28;20231;-69
2023/08/24 12:03:34;;;;;;;8.20;2.63;;;;;;;;;;5027479;28;20025;-69
2023/08/24 12:06:09;;;;;;;10.55;2.72;;;;;;;;;;5028424;28;20363;-71
2023/08/24 12:08:37;;;;;;;7.63;2.92;;;;;;;;;;5028954;28;20034;-70
2023/08/24 12:11:02;;;;;;;6.25;2.78;;;;;;;;;;5029223;28;20478;-69
2023/08/24 12:13:32;;;;;;;12.40;3.25;;;;;;;;;;5028863;28;20029;-71
2023/08/24 12:16:00;;;;;;;10.10;3.20;;;;;;;;;;5029182;28;20017;-71
2023/08/24 12:18:25;;;;;;;9.98;3.33;;;;;;;;;;5019709;28;20124;-71
2023/08/24 12:20:51;;;;;;;9.57;3.27;;;;;;;;;;5028156;28;20101;-68
2023/08/24 12:23:16;;;;;;;14.73;3.67;;;;;;;;;;5028404;28;20409;-69
2023/08/24 12:25:44;;;;;;;13.40;3.17;;;;;;;;;;5027828;28;20286;-71
2023/08/24 12:28:13;;;;;;;7.97;2.90;;;;;;;;;;5028962;28;20270;-68
2023/08/24 12:30:45;;;;;;;9.88;3.22;;;;;;;;;;5027281;28;20032;-69
2023/08/24 12:33:20;;;;;;;7.07;3.05;;;;;;;;;;5042998;22;20059;-71
2023/08/24 12:35:48;;;;;;;7.75;4.00;;;;;;;;;;5025047;28;20016;-72
2023/08/24 12:38:14;;;;;;;14.85;3.33;;;;;;;;;;5035685;28;20017;-70
2023/08/24 12:40:39;;;;;;;10.55;3.38;;;;;;;;;;5020065;28;20037;-70
2023/08/24 12:43:04;;;;;;;8.03;3.43;;;;;;;;;;5032077;28;20132;-72
2023/08/24 12:45:31;;;;;;;5.80;2.90;;;;;;;;;;5029007;28;20308;-75
2023/08/24 12:47:56;;;;;;;18.17;3.75;;;;;;;;;;5024637;28;20337;-73
2023/08/24 12:50:21;;;;;;;5.82;2.78;;;;;;;;;;5030565;28;20017;-72
2023/08/24 12:52:46;;;;;;;8.33;3.07;;;;;;;;;;5035508;28;20035;-68
2023/08/24 12:55:12;;;;;;;7.82;2.92;;;;;;;;;;5014214;28;20257;-69
2023/08/24 12:57:37;;;;;;;9.65;3.30;;;;;;;;;;5029016;28;20032;-70
2023/08/24 13:00:03;;;;;;;12.75;2.88;;;;;;;;;;5014540;28;20032;-70
2023/08/24 13:02:28;;;;;;;14.05;2.83;;;;;;;;;;5023360;28;20101;-72
2023/08/24 13:04:53;;;;;;;8.13;2.80;;;;;;;;;;5027001;28;20045;-73
2023/08/24 13:07:19;;;;;;;8.88;3.13;;;;;;;;;;5041966;28;20033;-73
2023/08/24 13:09:44;;;;;;;8.98;2.88;;;;;;;;;;5029087;28;20663;-73
2023/08/24 13:12:09;;;;;;;6.27;2.40;;;;;;;;;;5018740;28;20273;-73
2023/08/24 13:14:34;;;;;;;9.67;3.23;;;;;;;;;;5023184;28;20278;-74
2023/08/24 13:16:59;;;;;;;6.07;2.80;;;;;;;;;;5023051;28;20650;-76
2023/08/24 13:19:25;;;;;;;9.17;2.70;;;;;;;;;;5022460;28;20941;-73
2023/08/24 13:21:50;;;;;;;16.23;3.08;;;;;;;;;;5010052;28;20285;-72
2023/08/24 13:24:15;;;;;;;10.82;2.28;;;;;;;;;;5021720;28;20017;-71
2023/08/24 13:26:41;;;;;;;6.63;2.53;;;;;;;;;;5022441;28;20626;-72
2023/08/24 13:29:06;;;;;;;7.15;2.63;;;;;;;;;;5011871;28;20487;-72
2023/08/24 13:31:31;;;;;;;8.87;2.50;;;;;;;;;;5021678;28;20041;-72
2023/08/24 13:33:56;;;;;;;14.98;3.42;;;;;;;;;;5022365;28;20274;-71
2023/08/24 13:36:22;;;;;;;8.95;2.60;;;;;;;;;;5024015;28;20137;-69
2023/08/24 13:38:49;;;;;;;10.38;2.45;;;;;;;;;;5023352;28;20022;-73
2023/08/24 13:41:15;;;;;;;7.57;3.00;;;;;;;;;;5019337;28;20492;-68
2023/08/24 13:43:41;;;;;;;13.45;2.90;;;;;;;;;;5028968;28;20036;-72
2023/08/24 13:46:07;;;;;;;9.80;2.58;;;;;;;;;;5031539;28;20029;-71
2023/08/24 13:48:34;;;;;;;11.63;2.80;;;;;;;;;;5031507;28;20026;-71
2023/08/24 13:50:59;;;;;;;7.40;2.60;;;;;;;;;;5031831;28;20250;-72
2023/08/24 13:53:24;;;;;;;11.47;2.33;;;;;;;;;;5031802;28;20029;-70
2023/08/24 13:55:50;;;;;;;7.93;2.55;;;;;;;;;;5032282;28;20128;-71
2023/08/24 13:58:15;;;;;;;7.97;2.40;;;;;;;;;;5016270;28;20475;-72
2023/08/24 14:00:40;;;;;;;16.00;3.90;;;;;;;;;;5033128;28;20759;-70
2023/08/24 14:03:05;;;;;;;14.63;3.03;;;;;;;;;;5031338;28;20683;-73
2023/08/24 14:05:30;;;;;;;9.05;3.28;;;;;;;;;;5030696;28;20254;-71
2023/08/24 14:07:56;;;;;;;9.73;2.77;;;;;;;;;;5032677;28;20025;-72
2023/08/24 14:10:21;;;;;;;6.33;2.40;;;;;;;;;;5014678;28;20927;-73
2023/08/24 14:12:46;;;;;;;10.90;2.63;;;;;;;;;;5031661;28;20689;-70
2023/08/24 14:15:12;;;;;;;10.98;2.70;;;;;;;;;;5031359;28;20040;-70
2023/08/24 14:17:37;;;;;;;8.55;2.63;;;;;;;;;;5031470;28;20021;-73
2023/08/24 14:20:04;;;;;;;10.97;3.00;;;;;;;;;;5031457;28;20038;-74
2023/08/24 14:22:29;;;;;;;8.90;2.67;;;;;;;;;;5032092;28;20297;-70
2023/08/24 14:24:54;;;;;;;9.07;3.13;;;;;;;;;;5023335;28;20062;-69
2023/08/24 14:27:19;;;;;;;5.20;2.47;;;;;;;;;;5030831;28;20617;-67